sensor_id;sensor_type;location;lat;lon;timestamp;P1;durP1;ratioP1;P2;durP2;ratioP2
44670;SDS011;48397;53.016;-2.260;2023-02-02T00:01:33;3.65;;;1.67;;
44670;SDS011;48397;53.016;-2.260;2023-02-02T00:04:01;8.82;;;1.58;;
44670;SDS011;48397;53.016;-2.260;2023-02-02T00:06:30;5.22;;;1.23;;
44670;SDS011;48397;53.016;-2.260;2023-02-02T00:08:59;3.78;;;1.50;;
44670;SDS011;48397;53.016;-2.260;2023-02-02T00:11:28;4.45;;;1.85;;
44670;SDS011;48397;53.016;-2.260;2023-02-02T00:13:55;6.10;;;1.70;;
44670;SDS011;48397;53.016;-2.260;2023-02-02T00:18:58;4.20;;;1.75;;
44670;SDS011;48397;53.016;-2.260;2023-02-02T00:21:28;9.27;;;2.08;;
44670;SDS011;48397;53.016;-2.260;2023-02-02T00:23:55;4.47;;;1.80;;
44670;SDS011;48397;53.016;-2.260;2023-02-02T00:26:24;7.20;;;1.80;;
44670;SDS011;48397;53.016;-2.260;2023-02-02T00:28:54;5.38;;;1.50;;
44670;SDS011;48397;53.016;-2.260;2023-02-02T00:31:23;7.82;;;1.60;;
44670;SDS011;48397;53.016;-2.260;2023-02-02T00:33:51;7.88;;;2.00;;
44670;SDS011;48397;53.016;-2.260;2023-02-02T00:36:19;8.57;;;1.63;;
44670;SDS011;48397;53.016;-2.260;2023-02-02T00:38:48;11.07;;;2.17;;
44670;SDS011;48397;53.016;-2.260;2023-02-02T00:41:16;3.97;;;1.23;;
44670;SDS011;48397;53.016;-2.260;2023-02-02T00:43:44;5.60;;;1.70;;
44670;SDS011;48397;53.016;-2.260;2023-02-02T00:48:59;3.35;;;1.25;;
44670;SDS011;48397;53.016;-2.260;2023-02-02T00:53:58;6.78;;;1.98;;
44670;SDS011;48397;53.016;-2.260;2023-02-02T00:56:26;6.95;;;1.40;;
44670;SDS011;48397;53.016;-2.260;2023-02-02T00:58:54;5.13;;;1.40;;
44670;SDS011;48397;53.016;-2.260;2023-02-02T01:01:22;3.92;;;1.80;;
44670;SDS011;48397;53.016;-2.260;2023-02-02T01:03:51;12.52;;;1.95;;
44670;SDS011;48397;53.016;-2.260;2023-02-02T01:06:19;7.07;;;1.60;;
44670;SDS011;48397;53.016;-2.260;2023-02-02T01:08:47;5.32;;;1.35;;
44670;SDS011;48397;53.016;-2.260;2023-02-02T01:11:15;5.38;;;1.52;;
44670;SDS011;48397;53.016;-2.260;2023-02-02T01:13:43;7.45;;;1.70;;
44670;SDS011;48397;53.016;-2.260;2023-02-02T01:16:12;4.63;;;1.50;;
44670;SDS011;48397;53.016;-2.260;2023-02-02T01:18:40;8.55;;;1.48;;
44670;SDS011;48397;53.016;-2.260;2023-02-02T01:21:09;4.53;;;1.55;;
44670;SDS011;48397;53.016;-2.260;2023-02-02T01:23:38;6.88;;;1.65;;
44670;SDS011;48397;53.016;-2.260;2023-02-02T01:26:07;6.18;;;1.83;;
44670;SDS011;48397;53.016;-2.260;2023-02-02T01:28:37;6.22;;;1.42;;
44670;SDS011;48397;53.016;-2.260;2023-02-02T01:31:07;8.75;;;1.60;;
44670;SDS011;48397;53.016;-2.260;2023-02-02T01:33:37;5.75;;;1.85;;
44670;SDS011;48397;53.016;-2.260;2023-02-02T01:36:06;4.75;;;1.40;;
44670;SDS011;48397;53.016;-2.260;2023-02-02T01:38:38;6.45;;;1.60;;
44670;SDS011;48397;53.016;-2.260;2023-02-02T01:41:06;6.40;;;1.60;;
44670;SDS011;48397;53.016;-2.260;2023-02-02T01:46:16;5.68;;;1.42;;
44670;SDS011;48397;53.016;-2.260;2023-02-02T01:48:49;8.52;;;1.73;;
44670;SDS011;48397;53.016;-2.260;2023-02-02T01:51:22;4.60;;;2.08;;
44670;SDS011;48397;53.016;-2.260;2023-02-02T01:53:58;5.97;;;1.70;;
44670;SDS011;48397;53.016;-2.260;2023-02-02T01:56:32;8.88;;;1.73;;
44670;SDS011;48397;53.016;-2.260;2023-02-02T01:59:02;7.25;;;1.58;;
44670;SDS011;48397;53.016;-2.260;2023-02-02T02:01:32;9.27;;;1.67;;
44670;SDS011;48397;53.016;-2.260;2023-02-02T02:03:59;5.20;;;1.75;;
44670;SDS011;48397;53.016;-2.260;2023-02-02T02:08:57;6.47;;;1.70;;
44670;SDS011;48397;53.016;-2.260;2023-02-02T02:11:30;8.25;;;1.58;;
44670;SDS011;48397;53.016;-2.260;2023-02-02T02:14:01;6.40;;;1.40;;
44670;SDS011;48397;53.016;-2.260;2023-02-02T02:28:56;5.07;;;1.50;;
44670;SDS011;48397;53.016;-2.260;2023-02-02T02:39:58;9.95;;;2.05;;
44670;SDS011;48397;53.016;-2.260;2023-02-02T02:42:43;6.88;;;1.58;;
44670;SDS011;48397;53.016;-2.260;2023-02-02T02:45:14;3.67;;;1.23;;
44670;SDS011;48397;53.016;-2.260;2023-02-02T02:47:44;11.73;;;1.70;;
44670;SDS011;48397;53.016;-2.260;2023-02-02T02:50:13;4.85;;;1.50;;
44670;SDS011;48397;53.016;-2.260;2023-02-02T02:52:41;6.53;;;1.60;;
44670;SDS011;48397;53.016;-2.260;2023-02-02T03:06:32;8.38;;;2.38;;
44670;SDS011;48397;53.016;-2.260;2023-02-02T03:09:21;4.35;;;1.38;;
44670;SDS011;48397;53.016;-2.260;2023-02-02T03:11:51;5.00;;;1.30;;
44670;SDS011;48397;53.016;-2.260;2023-02-02T03:14:21;6.18;;;1.90;;
44670;SDS011;48397;53.016;-2.260;2023-02-02T03:16:52;6.75;;;2.10;;
44670;SDS011;48397;53.016;-2.260;2023-02-02T03:19:19;6.47;;;1.20;;
44670;SDS011;48397;53.016;-2.260;2023-02-02T03:21:47;10.45;;;2.00;;
44670;SDS011;48397;53.016;-2.260;2023-02-02T03:24:15;5.93;;;1.70;;
44670;SDS011;48397;53.016;-2.260;2023-02-02T03:26:43;7.68;;;1.98;;
44670;SDS011;48397;53.016;-2.260;2023-02-02T03:29:12;7.78;;;2.25;;
44670;SDS011;48397;53.016;-2.260;2023-02-02T03:31:40;5.70;;;1.58;;
44670;SDS011;48397;53.016;-2.260;2023-02-02T03:34:09;7.45;;;1.83;;
44670;SDS011;48397;53.016;-2.260;2023-02-02T03:36:38;6.90;;;1.80;;
44670;SDS011;48397;53.016;-2.260;2023-02-02T03:39:05;5.45;;;1.60;;
44670;SDS011;48397;53.016;-2.260;2023-02-02T03:41:33;8.65;;;2.22;;
44670;SDS011;48397;53.016;-2.260;2023-02-02T03:44:01;5.55;;;1.58;;
44670;SDS011;48397;53.016;-2.260;2023-02-02T03:46:30;7.07;;;1.55;;
44670;SDS011;48397;53.016;-2.260;2023-02-02T03:48:58;6.40;;;1.90;;
44670;SDS011;48397;53.016;-2.260;2023-02-02T03:51:26;4.90;;;1.52;;
44670;SDS011;48397;53.016;-2.260;2023-02-02T03:53:54;7.25;;;1.88;;
44670;SDS011;48397;53.016;-2.260;2023-02-02T03:56:21;4.13;;;1.85;;
44670;SDS011;48397;53.016;-2.260;2023-02-02T03:58:49;6.00;;;1.75;;
44670;SDS011;48397;53.016;-2.260;2023-02-02T04:01:17;5.60;;;1.63;;
44670;SDS011;48397;53.016;-2.260;2023-02-02T04:03:54;6.50;;;1.70;;
44670;SDS011;48397;53.016;-2.260;2023-02-02T04:06:23;6.55;;;1.80;;
44670;SDS011;48397;53.016;-2.260;2023-02-02T04:08:51;4.70;;;1.60;;
44670;SDS011;48397;53.016;-2.260;2023-02-02T04:11:19;6.63;;;1.80;;
44670;SDS011;48397;53.016;-2.260;2023-02-02T04:13:47;5.70;;;1.50;;
44670;SDS011;48397;53.016;-2.260;2023-02-02T04:16:16;4.22;;;1.65;;
44670;SDS011;48397;53.016;-2.260;2023-02-02T04:18:44;5.97;;;1.63;;
44670;SDS011;48397;53.016;-2.260;2023-02-02T04:21:12;6.50;;;1.65;;
44670;SDS011;48397;53.016;-2.260;2023-02-02T04:23:39;5.80;;;1.58;;
44670;SDS011;48397;53.016;-2.260;2023-02-02T04:26:07;8.57;;;1.90;;
44670;SDS011;48397;53.016;-2.260;2023-02-02T04:28:36;5.28;;;1.67;;
44670;SDS011;48397;53.016;-2.260;2023-02-02T04:31:03;7.10;;;1.70;;
44670;SDS011;48397;53.016;-2.260;2023-02-02T04:33:32;6.85;;;1.50;;
44670;SDS011;48397;53.016;-2.260;2023-02-02T04:36:00;4.95;;;1.73;;
44670;SDS011;48397;53.016;-2.260;2023-02-02T04:38:30;6.43;;;1.40;;
44670;SDS011;48397;53.016;-2.260;2023-02-02T04:40:58;6.97;;;1.65;;
44670;SDS011;48397;53.016;-2.260;2023-02-02T04:43:27;9.30;;;1.60;;
44670;SDS011;48397;53.016;-2.260;2023-02-02T04:45:56;4.57;;;1.80;;
44670;SDS011;48397;53.016;-2.260;2023-02-02T04:48:25;7.82;;;1.75;;
44670;SDS011;48397;53.016;-2.260;2023-02-02T04:50:59;10.10;;;1.70;;
44670;SDS011;48397;53.016;-2.260;2023-02-02T04:53:31;5.03;;;1.40;;
44670;SDS011;48397;53.016;-2.260;2023-02-02T04:56:06;7.38;;;2.08;;
44670;SDS011;48397;53.016;-2.260;2023-02-02T04:58:35;5.50;;;1.83;;
44670;SDS011;48397;53.016;-2.260;2023-02-02T05:01:16;6.05;;;1.60;;
44670;SDS011;48397;53.016;-2.260;2023-02-02T05:03:46;5.13;;;1.23;;
44670;SDS011;48397;53.016;-2.260;2023-02-02T05:06:14;3.78;;;1.23;;
44670;SDS011;48397;53.016;-2.260;2023-02-02T05:08:44;6.85;;;1.63;;
44670;SDS011;48397;53.016;-2.260;2023-02-02T05:11:14;9.52;;;1.67;;
44670;SDS011;48397;53.016;-2.260;2023-02-02T05:13:47;3.60;;;1.40;;
44670;SDS011;48397;53.016;-2.260;2023-02-02T05:16:16;5.75;;;1.55;;
44670;SDS011;48397;53.016;-2.260;2023-02-02T05:18:52;7.45;;;1.67;;
44670;SDS011;48397;53.016;-2.260;2023-02-02T05:23:50;8.57;;;1.73;;
44670;SDS011;48397;53.016;-2.260;2023-02-02T05:26:20;5.55;;;1.52;;
44670;SDS011;48397;53.016;-2.260;2023-02-02T05:28:49;4.97;;;1.08;;
44670;SDS011;48397;53.016;-2.260;2023-02-02T05:31:18;8.38;;;1.70;;
44670;SDS011;48397;53.016;-2.260;2023-02-02T05:33:46;10.50;;;1.98;;
44670;SDS011;48397;53.016;-2.260;2023-02-02T05:36:14;5.22;;;1.55;;
44670;SDS011;48397;53.016;-2.260;2023-02-02T05:38:42;7.30;;;1.80;;
44670;SDS011;48397;53.016;-2.260;2023-02-02T05:43:37;6.18;;;1.70;;
44670;SDS011;48397;53.016;-2.260;2023-02-02T05:46:05;5.90;;;1.67;;
44670;SDS011;48397;53.016;-2.260;2023-02-02T05:48:33;7.03;;;1.52;;
44670;SDS011;48397;53.016;-2.260;2023-02-02T05:51:11;3.47;;;1.30;;
44670;SDS011;48397;53.016;-2.260;2023-02-02T05:53:58;9.77;;;1.40;;
44670;SDS011;48397;53.016;-2.260;2023-02-02T05:56:27;8.18;;;2.22;;
44670;SDS011;48397;53.016;-2.260;2023-02-02T05:58:57;8.43;;;1.83;;
44670;SDS011;48397;53.016;-2.260;2023-02-02T06:01:26;7.82;;;1.88;;
44670;SDS011;48397;53.016;-2.260;2023-02-02T06:03:53;6.05;;;2.10;;
44670;SDS011;48397;53.016;-2.260;2023-02-02T06:08:49;8.70;;;2.22;;
44670;SDS011;48397;53.016;-2.260;2023-02-02T06:11:17;7.78;;;1.88;;
44670;SDS011;48397;53.016;-2.260;2023-02-02T06:16:13;5.63;;;1.60;;
44670;SDS011;48397;53.016;-2.260;2023-02-02T06:18:41;5.53;;;1.83;;
44670;SDS011;48397;53.016;-2.260;2023-02-02T06:23:39;6.22;;;1.40;;
44670;SDS011;48397;53.016;-2.260;2023-02-02T06:26:12;5.97;;;1.60;;
44670;SDS011;48397;53.016;-2.260;2023-02-02T06:28:46;8.02;;;1.83;;
44670;SDS011;48397;53.016;-2.260;2023-02-02T06:31:15;6.20;;;1.60;;
44670;SDS011;48397;53.016;-2.260;2023-02-02T06:33:47;5.53;;;1.60;;
44670;SDS011;48397;53.016;-2.260;2023-02-02T06:36:19;6.43;;;1.50;;
44670;SDS011;48397;53.016;-2.260;2023-02-02T06:38:48;6.85;;;1.60;;
44670;SDS011;48397;53.016;-2.260;2023-02-02T06:41:17;7.07;;;1.60;;
44670;SDS011;48397;53.016;-2.260;2023-02-02T06:43:46;6.72;;;1.80;;
44670;SDS011;48397;53.016;-2.260;2023-02-02T06:46:15;6.25;;;1.42;;
44670;SDS011;48397;53.016;-2.260;2023-02-02T06:48:43;8.20;;;1.60;;
44670;SDS011;48397;53.016;-2.260;2023-02-02T06:51:12;7.72;;;1.70;;
44670;SDS011;48397;53.016;-2.260;2023-02-02T06:53:42;6.72;;;1.60;;
44670;SDS011;48397;53.016;-2.260;2023-02-02T06:56:11;5.22;;;1.50;;
44670;SDS011;48397;53.016;-2.260;2023-02-02T06:58:40;5.47;;;1.40;;
44670;SDS011;48397;53.016;-2.260;2023-02-02T07:01:08;12.15;;;2.22;;
44670;SDS011;48397;53.016;-2.260;2023-02-02T07:03:38;2.25;;;1.35;;
44670;SDS011;48397;53.016;-2.260;2023-02-02T07:08:23;6.85;;;1.75;;
44670;SDS011;48397;53.016;-2.260;2023-02-02T07:13:39;3.47;;;1.33;;
44670;SDS011;48397;53.016;-2.260;2023-02-02T07:16:07;9.68;;;1.80;;
44670;SDS011;48397;53.016;-2.260;2023-02-02T07:18:35;4.85;;;1.20;;
44670;SDS011;48397;53.016;-2.260;2023-02-02T07:21:03;3.33;;;0.90;;
44670;SDS011;48397;53.016;-2.260;2023-02-02T07:23:32;5.03;;;1.30;;
44670;SDS011;48397;53.016;-2.260;2023-02-02T07:26:04;4.80;;;1.58;;
44670;SDS011;48397;53.016;-2.260;2023-02-02T07:28:39;7.03;;;1.40;;
44670;SDS011;48397;53.016;-2.260;2023-02-02T07:33:45;1.75;;;0.80;;
44670;SDS011;48397;53.016;-2.260;2023-02-02T07:36:15;6.25;;;1.45;;
44670;SDS011;48397;53.016;-2.260;2023-02-02T07:38:45;4.22;;;1.40;;
44670;SDS011;48397;53.016;-2.260;2023-02-02T07:41:14;4.00;;;0.93;;
44670;SDS011;48397;53.016;-2.260;2023-02-02T07:43:45;4.85;;;1.40;;
44670;SDS011;48397;53.016;-2.260;2023-02-02T07:46:13;2.72;;;0.90;;
44670;SDS011;48397;53.016;-2.260;2023-02-02T07:48:42;5.55;;;1.20;;
44670;SDS011;48397;53.016;-2.260;2023-02-02T07:51:12;3.35;;;1.05;;
44670;SDS011;48397;53.016;-2.260;2023-02-02T07:53:46;3.45;;;1.17;;
44670;SDS011;48397;53.016;-2.260;2023-02-02T07:56:22;4.70;;;1.52;;
44670;SDS011;48397;53.016;-2.260;2023-02-02T07:58:57;2.13;;;1.00;;
44670;SDS011;48397;53.016;-2.260;2023-02-02T08:01:25;3.47;;;1.10;;
44670;SDS011;48397;53.016;-2.260;2023-02-02T08:03:56;4.20;;;1.00;;
44670;SDS011;48397;53.016;-2.260;2023-02-02T08:06:33;6.60;;;1.00;;
44670;SDS011;48397;53.016;-2.260;2023-02-02T08:09:03;4.10;;;1.13;;
44670;SDS011;48397;53.016;-2.260;2023-02-02T08:11:34;2.17;;;0.77;;
44670;SDS011;48397;53.016;-2.260;2023-02-02T08:14:03;4.32;;;1.13;;
44670;SDS011;48397;53.016;-2.260;2023-02-02T08:16:32;8.32;;;1.80;;
44670;SDS011;48397;53.016;-2.260;2023-02-02T08:19:01;5.07;;;1.38;;
44670;SDS011;48397;53.016;-2.260;2023-02-02T08:21:31;5.40;;;1.42;;
44670;SDS011;48397;53.016;-2.260;2023-02-02T08:23:59;5.55;;;1.38;;
44670;SDS011;48397;53.016;-2.260;2023-02-02T08:26:32;4.22;;;1.35;;
44670;SDS011;48397;53.016;-2.260;2023-02-02T08:29:01;2.35;;;1.02;;
44670;SDS011;48397;53.016;-2.260;2023-02-02T08:31:35;4.22;;;1.05;;
44670;SDS011;48397;53.016;-2.260;2023-02-02T08:34:05;1.67;;;1.20;;
44670;SDS011;48397;53.016;-2.260;2023-02-02T08:36:33;2.97;;;1.00;;
44670;SDS011;48397;53.016;-2.260;2023-02-02T08:39:04;4.30;;;1.23;;
44670;SDS011;48397;53.016;-2.260;2023-02-02T08:41:33;3.92;;;1.42;;
44670;SDS011;48397;53.016;-2.260;2023-02-02T08:44:06;2.08;;;1.15;;
44670;SDS011;48397;53.016;-2.260;2023-02-02T08:46:37;1.15;;;0.80;;
44670;SDS011;48397;53.016;-2.260;2023-02-02T08:49:05;2.95;;;1.02;;
44670;SDS011;48397;53.016;-2.260;2023-02-02T08:51:35;1.70;;;0.82;;
44670;SDS011;48397;53.016;-2.260;2023-02-02T08:54:03;2.83;;;1.20;;
44670;SDS011;48397;53.016;-2.260;2023-02-02T08:56:31;4.15;;;1.20;;
44670;SDS011;48397;53.016;-2.260;2023-02-02T08:58:58;2.15;;;0.90;;
44670;SDS011;48397;53.016;-2.260;2023-02-02T09:01:29;3.58;;;1.13;;
44670;SDS011;48397;53.016;-2.260;2023-02-02T09:04:05;4.35;;;1.02;;
44670;SDS011;48397;53.016;-2.260;2023-02-02T09:06:41;1.98;;;0.90;;
44670;SDS011;48397;53.016;-2.260;2023-02-02T09:09:11;1.42;;;0.90;;
44670;SDS011;48397;53.016;-2.260;2023-02-02T09:11:41;2.72;;;0.88;;
44670;SDS011;48397;53.016;-2.260;2023-02-02T09:14:10;1.30;;;0.90;;
44670;SDS011;48397;53.016;-2.260;2023-02-02T09:16:41;2.25;;;1.00;;
44670;SDS011;48397;53.016;-2.260;2023-02-02T09:19:09;3.60;;;1.08;;
44670;SDS011;48397;53.016;-2.260;2023-02-02T09:21:38;3.35;;;1.20;;
44670;SDS011;48397;53.016;-2.260;2023-02-02T09:24:08;1.42;;;0.90;;
44670;SDS011;48397;53.016;-2.260;2023-02-02T09:26:37;3.05;;;1.15;;
44670;SDS011;48397;53.016;-2.260;2023-02-02T09:29:07;3.22;;;1.40;;
44670;SDS011;48397;53.016;-2.260;2023-02-02T09:31:39;3.15;;;1.20;;
44670;SDS011;48397;53.016;-2.260;2023-02-02T09:36:37;2.92;;;0.98;;
44670;SDS011;48397;53.016;-2.260;2023-02-02T09:39:07;4.95;;;1.00;;
44670;SDS011;48397;53.016;-2.260;2023-02-02T09:53:02;1.75;;;1.05;;
44670;SDS011;48397;53.016;-2.260;2023-02-02T09:55:52;5.03;;;1.23;;
44670;SDS011;48397;53.016;-2.260;2023-02-02T09:58:32;4.03;;;1.17;;
44670;SDS011;48397;53.016;-2.260;2023-02-02T10:01:05;4.70;;;1.13;;
44670;SDS011;48397;53.016;-2.260;2023-02-02T10:03:41;3.97;;;1.30;;
44670;SDS011;48397;53.016;-2.260;2023-02-02T10:09:14;2.05;;;1.02;;
44670;SDS011;48397;53.016;-2.260;2023-02-02T10:12:16;3.05;;;1.05;;
44670;SDS011;48397;53.016;-2.260;2023-02-02T10:20:50;2.72;;;1.05;;
44670;SDS011;48397;53.016;-2.260;2023-02-02T10:23:32;2.80;;;1.00;;
44670;SDS011;48397;53.016;-2.260;2023-02-02T10:40:59;4.40;;;0.98;;
44670;SDS011;48397;53.016;-2.260;2023-02-02T10:46:39;2.47;;;1.48;;
44670;SDS011;48397;53.016;-2.260;2023-02-02T10:49:29;1.67;;;0.75;;
44670;SDS011;48397;53.016;-2.260;2023-02-02T10:52:11;3.55;;;0.80;;
44670;SDS011;48397;53.016;-2.260;2023-02-02T10:57:50;3.00;;;1.05;;
44670;SDS011;48397;53.016;-2.260;2023-02-02T11:00:32;2.78;;;1.10;;
44670;SDS011;48397;53.016;-2.260;2023-02-02T11:03:13;4.30;;;0.80;;
44670;SDS011;48397;53.016;-2.260;2023-02-02T11:05:43;3.38;;;0.70;;
44670;SDS011;48397;53.016;-2.260;2023-02-02T11:08:31;2.33;;;0.80;;
44670;SDS011;48397;53.016;-2.260;2023-02-02T11:14:00;1.23;;;0.50;;
44670;SDS011;48397;53.016;-2.260;2023-02-02T11:16:38;4.28;;;0.90;;
44670;SDS011;48397;53.016;-2.260;2023-02-02T11:21:46;2.35;;;0.60;;
44670;SDS011;48397;53.016;-2.260;2023-02-02T11:24:26;2.42;;;0.68;;
44670;SDS011;48397;53.016;-2.260;2023-02-02T11:27:16;2.33;;;0.60;;
44670;SDS011;48397;53.016;-2.260;2023-02-02T11:29:50;1.30;;;0.40;;
44670;SDS011;48397;53.016;-2.260;2023-02-02T11:32:32;0.90;;;0.50;;
44670;SDS011;48397;53.016;-2.260;2023-02-02T11:37:35;0.68;;;0.55;;
44670;SDS011;48397;53.016;-2.260;2023-02-02T11:43:13;0.98;;;0.50;;
44670;SDS011;48397;53.016;-2.260;2023-02-02T11:45:45;2.05;;;0.52;;
44670;SDS011;48397;53.016;-2.260;2023-02-02T11:48:20;1.92;;;0.70;;
44670;SDS011;48397;53.016;-2.260;2023-02-02T11:50:52;2.80;;;0.50;;
44670;SDS011;48397;53.016;-2.260;2023-02-02T11:53:28;0.90;;;0.60;;
44670;SDS011;48397;53.016;-2.260;2023-02-02T11:55:57;2.00;;;0.68;;
44670;SDS011;48397;53.016;-2.260;2023-02-02T11:58:29;0.40;;;0.40;;
44670;SDS011;48397;53.016;-2.260;2023-02-02T12:04:02;2.03;;;0.47;;
44670;SDS011;48397;53.016;-2.260;2023-02-02T12:06:51;6.55;;;1.00;;
44670;SDS011;48397;53.016;-2.260;2023-02-02T12:09:23;2.50;;;0.60;;
44670;SDS011;48397;53.016;-2.260;2023-02-02T12:11:59;2.47;;;0.73;;
44670;SDS011;48397;53.016;-2.260;2023-02-02T12:14:44;2.38;;;0.65;;
44670;SDS011;48397;53.016;-2.260;2023-02-02T12:17:28;0.63;;;0.50;;
44670;SDS011;48397;53.016;-2.260;2023-02-02T12:20:24;1.15;;;0.47;;
44670;SDS011;48397;53.016;-2.260;2023-02-02T12:23:21;3.00;;;0.70;;
44670;SDS011;48397;53.016;-2.260;2023-02-02T12:48:52;1.40;;;0.70;;
44670;SDS011;48397;53.016;-2.260;2023-02-02T12:51:44;1.17;;;0.63;;
44670;SDS011;48397;53.016;-2.260;2023-02-02T12:59:58;3.10;;;0.60;;
44670;SDS011;48397;53.016;-2.260;2023-02-02T13:11:38;1.42;;;0.80;;
44670;SDS011;48397;53.016;-2.260;2023-02-02T13:14:14;2.00;;;0.75;;
44670;SDS011;48397;53.016;-2.260;2023-02-02T13:16:54;3.05;;;0.80;;
44670;SDS011;48397;53.016;-2.260;2023-02-02T13:20:00;0.60;;;0.40;;
44670;SDS011;48397;53.016;-2.260;2023-02-02T13:22:33;1.38;;;0.70;;
44670;SDS011;48397;53.016;-2.260;2023-02-02T13:25:08;1.00;;;0.55;;
44670;SDS011;48397;53.016;-2.260;2023-02-02T13:27:51;2.55;;;0.55;;
44670;SDS011;48397;53.016;-2.260;2023-02-02T13:32:58;0.98;;;0.40;;
44670;SDS011;48397;53.016;-2.260;2023-02-02T13:35:37;6.80;;;0.85;;
44670;SDS011;48397;53.016;-2.260;2023-02-02T13:40:53;3.10;;;1.40;;
44670;SDS011;48397;53.016;-2.260;2023-02-02T13:43:36;2.47;;;1.30;;
44670;SDS011;48397;53.016;-2.260;2023-02-02T13:46:16;3.40;;;1.45;;
44670;SDS011;48397;53.016;-2.260;2023-02-02T13:51:34;2.78;;;1.13;;
44670;SDS011;48397;53.016;-2.260;2023-02-02T14:00:43;4.55;;;1.13;;
44670;SDS011;48397;53.016;-2.260;2023-02-02T14:03:03;1.73;;;1.10;;
44670;SDS011;48397;53.016;-2.260;2023-02-02T14:05:34;2.30;;;1.00;;
44670;SDS011;48397;53.016;-2.260;2023-02-02T14:08:06;1.48;;;0.80;;
44670;SDS011;48397;53.016;-2.260;2023-02-02T14:13:27;1.05;;;0.57;;
44670;SDS011;48397;53.016;-2.260;2023-02-02T14:19:00;1.65;;;0.65;;
44670;SDS011;48397;53.016;-2.260;2023-02-02T14:24:36;3.88;;;0.90;;
44670;SDS011;48397;53.016;-2.260;2023-02-02T14:40:50;2.50;;;0.82;;
44670;SDS011;48397;53.016;-2.260;2023-02-02T14:43:43;3.55;;;0.93;;
44670;SDS011;48397;53.016;-2.260;2023-02-02T14:46:23;1.52;;;0.55;;
44670;SDS011;48397;53.016;-2.260;2023-02-02T14:49:17;3.35;;;0.88;;
44670;SDS011;48397;53.016;-2.260;2023-02-02T14:51:52;1.55;;;0.60;;
44670;SDS011;48397;53.016;-2.260;2023-02-02T14:54:31;2.45;;;0.80;;
44670;SDS011;48397;53.016;-2.260;2023-02-02T14:57:24;2.85;;;1.05;;
44670;SDS011;48397;53.016;-2.260;2023-02-02T14:59:54;10.25;;;1.80;;
44670;SDS011;48397;53.016;-2.260;2023-02-02T15:02:33;1.90;;;0.90;;
44670;SDS011;48397;53.016;-2.260;2023-02-02T15:08:10;4.97;;;0.75;;
44670;SDS011;48397;53.016;-2.260;2023-02-02T15:13:14;2.03;;;0.60;;
44670;SDS011;48397;53.016;-2.260;2023-02-02T15:20:07;4.07;;;0.93;;
44670;SDS011;48397;53.016;-2.260;2023-02-02T15:22:44;4.47;;;1.02;;
44670;SDS011;48397;53.016;-2.260;2023-02-02T15:33:47;3.60;;;0.50;;
44670;SDS011;48397;53.016;-2.260;2023-02-02T15:36:22;2.45;;;0.70;;
44670;SDS011;48397;53.016;-2.260;2023-02-02T15:38:57;2.65;;;0.57;;
44670;SDS011;48397;53.016;-2.260;2023-02-02T15:41:32;1.13;;;0.50;;
44670;SDS011;48397;53.016;-2.260;2023-02-02T15:44:16;1.50;;;0.50;;
44670;SDS011;48397;53.016;-2.260;2023-02-02T15:46:48;1.92;;;0.70;;
44670;SDS011;48397;53.016;-2.260;2023-02-02T15:49:35;1.90;;;0.65;;
44670;SDS011;48397;53.016;-2.260;2023-02-02T15:52:13;1.30;;;0.70;;
44670;SDS011;48397;53.016;-2.260;2023-02-02T15:54:48;2.30;;;0.90;;
44670;SDS011;48397;53.016;-2.260;2023-02-02T15:57:34;1.67;;;0.80;;
44670;SDS011;48397;53.016;-2.260;2023-02-02T16:00:21;1.35;;;0.50;;
44670;SDS011;48397;53.016;-2.260;2023-02-02T16:03:00;0.82;;;0.60;;
44670;SDS011;48397;53.016;-2.260;2023-02-02T16:07:58;2.35;;;0.80;;
44670;SDS011;48397;53.016;-2.260;2023-02-02T16:10:33;1.95;;;1.02;;
44670;SDS011;48397;53.016;-2.260;2023-02-02T16:13:01;1.67;;;1.00;;
44670;SDS011;48397;53.016;-2.260;2023-02-02T16:15:30;3.55;;;1.20;;
44670;SDS011;48397;53.016;-2.260;2023-02-02T16:18:05;1.95;;;1.17;;
44670;SDS011;48397;53.016;-2.260;2023-02-02T16:20:41;1.35;;;0.73;;
44670;SDS011;48397;53.016;-2.260;2023-02-02T16:23:12;2.53;;;1.92;;
44670;SDS011;48397;53.016;-2.260;2023-02-02T16:25:51;2.50;;;1.55;;
44670;SDS011;48397;53.016;-2.260;2023-02-02T16:28:20;2.70;;;1.88;;
44670;SDS011;48397;53.016;-2.260;2023-02-02T16:30:49;1.80;;;0.98;;
44670;SDS011;48397;53.016;-2.260;2023-02-02T16:33:35;2.17;;;0.90;;
44670;SDS011;48397;53.016;-2.260;2023-02-02T16:36:23;1.00;;;0.88;;
44670;SDS011;48397;53.016;-2.260;2023-02-02T16:38:53;3.38;;;1.00;;
44670;SDS011;48397;53.016;-2.260;2023-02-02T16:41:34;5.43;;;1.92;;
44670;SDS011;48397;53.016;-2.260;2023-02-02T16:49:53;1.42;;;0.82;;
44670;SDS011;48397;53.016;-2.260;2023-02-02T16:52:48;0.88;;;0.68;;
44670;SDS011;48397;53.016;-2.260;2023-02-02T16:55:29;4.45;;;0.90;;
44670;SDS011;48397;53.016;-2.260;2023-02-02T16:58:19;2.45;;;0.80;;
44670;SDS011;48397;53.016;-2.260;2023-02-02T17:01:07;2.75;;;0.73;;
44670;SDS011;48397;53.016;-2.260;2023-02-02T17:03:49;3.40;;;0.80;;
44670;SDS011;48397;53.016;-2.260;2023-02-02T17:06:25;1.65;;;0.88;;
44670;SDS011;48397;53.016;-2.260;2023-02-02T17:12:20;2.63;;;1.20;;
44670;SDS011;48397;53.016;-2.260;2023-02-02T17:15:23;3.17;;;1.10;;
44670;SDS011;48397;53.016;-2.260;2023-02-02T17:18:14;1.55;;;0.90;;
44670;SDS011;48397;53.016;-2.260;2023-02-02T17:20:44;2.58;;;1.52;;
44670;SDS011;48397;53.016;-2.260;2023-02-02T17:23:13;1.90;;;1.10;;
44670;SDS011;48397;53.016;-2.260;2023-02-02T17:25:44;3.30;;;1.10;;
44670;SDS011;48397;53.016;-2.260;2023-02-02T17:28:16;4.10;;;1.10;;
44670;SDS011;48397;53.016;-2.260;2023-02-02T17:30:47;2.72;;;1.10;;
44670;SDS011;48397;53.016;-2.260;2023-02-02T17:33:22;2.53;;;0.90;;
44670;SDS011;48397;53.016;-2.260;2023-02-02T17:35:50;2.38;;;0.80;;
44670;SDS011;48397;53.016;-2.260;2023-02-02T17:38:22;1.60;;;0.88;;
44670;SDS011;48397;53.016;-2.260;2023-02-02T17:40:51;3.30;;;0.80;;
44670;SDS011;48397;53.016;-2.260;2023-02-02T17:43:19;2.33;;;0.80;;
44670;SDS011;48397;53.016;-2.260;2023-02-02T17:45:47;1.80;;;0.68;;
44670;SDS011;48397;53.016;-2.260;2023-02-02T17:48:15;3.10;;;1.20;;
44670;SDS011;48397;53.016;-2.260;2023-02-02T17:50:43;3.45;;;1.08;;
44670;SDS011;48397;53.016;-2.260;2023-02-02T17:55:41;2.72;;;0.70;;
44670;SDS011;48397;53.016;-2.260;2023-02-02T17:58:11;2.00;;;0.70;;
44670;SDS011;48397;53.016;-2.260;2023-02-02T18:00:41;1.70;;;0.95;;
44670;SDS011;48397;53.016;-2.260;2023-02-02T18:03:23;1.20;;;0.47;;
44670;SDS011;48397;53.016;-2.260;2023-02-02T18:05:53;3.95;;;0.70;;
44670;SDS011;48397;53.016;-2.260;2023-02-02T18:08:23;2.30;;;0.80;;
44670;SDS011;48397;53.016;-2.260;2023-02-02T18:10:51;1.65;;;0.90;;
44670;SDS011;48397;53.016;-2.260;2023-02-02T18:15:48;1.60;;;0.80;;
44670;SDS011;48397;53.016;-2.260;2023-02-02T18:18:16;1.85;;;0.90;;
44670;SDS011;48397;53.016;-2.260;2023-02-02T18:20:45;2.38;;;0.80;;
44670;SDS011;48397;53.016;-2.260;2023-02-02T18:23:15;2.47;;;0.80;;
44670;SDS011;48397;53.016;-2.260;2023-02-02T18:25:44;2.38;;;0.80;;
44670;SDS011;48397;53.016;-2.260;2023-02-02T18:28:11;5.07;;;1.00;;
44670;SDS011;48397;53.016;-2.260;2023-02-02T18:30:44;2.10;;;0.90;;
44670;SDS011;48397;53.016;-2.260;2023-02-02T18:33:13;2.67;;;1.20;;
44670;SDS011;48397;53.016;-2.260;2023-02-02T18:35:44;3.72;;;1.58;;
44670;SDS011;48397;53.016;-2.260;2023-02-02T18:38:13;5.95;;;2.97;;
44670;SDS011;48397;53.016;-2.260;2023-02-02T18:40:41;6.70;;;1.50;;
44670;SDS011;48397;53.016;-2.260;2023-02-02T18:43:09;3.08;;;1.10;;
44670;SDS011;48397;53.016;-2.260;2023-02-02T18:45:37;5.00;;;1.40;;
44670;SDS011;48397;53.016;-2.260;2023-02-02T18:48:05;3.15;;;1.25;;
44670;SDS011;48397;53.016;-2.260;2023-02-02T18:50:32;4.43;;;1.33;;
44670;SDS011;48397;53.016;-2.260;2023-02-02T18:53:00;6.03;;;1.50;;
44670;SDS011;48397;53.016;-2.260;2023-02-02T18:55:28;2.13;;;0.95;;
44670;SDS011;48397;53.016;-2.260;2023-02-02T18:57:56;7.55;;;1.95;;